Terminal Aerodrome Forecast
Issued by NWS Jackson, MS

Home | Current Version | Previous Version | Text Only | Print | Product List | Glossary On
Versions: 1 2 3 4 5 6 7 8 9 10 11 12 13
143
FTUS44 KJAN 232333
TAFGLH
TAF
KGLH 232333Z 2400/2424 11006KT P6SM BKN250
     FM241100 00000KT 6SM BR SCT250
     FM241400 VRB03KT P6SM SCT030
     FM241800 02004KT P6SM VCTS SCT050CB=

USA.gov is the U.S. government's official web portal to all federal, state and local government web resources and services.